Terminal Aerodrome Forecast
Issued by NWS Mt. Holly, NJ

Home | Current Version | Previous Version | Text Only | Print | Product List | Glossary On
Versions: 1 2 3 4 5 6 7 8 9 10 11 12 13 14 15 16 17 18 19 20 21 22 23 24
000
FTUS41 KPHI 301500 AAC
TAFABE
TAF AMD
KABE 301509Z 3015/0112 13003KT P6SM BKN010 OVC025
      TEMPO 3015/3016 SCT010 BKN025
     FM301600 11005KT P6SM SCT020 BKN050
     FM010100 06004KT P6SM BKN150
     FM010500 07007KT 4SM BR BKN008=

USA.gov is the U.S. government's official web portal to all federal, state and local government web resources and services.